sensor_id;sensor_type;location;lat;lon;timestamp;temperature;humidity
14873;DHT22;7528;48.576;19.122;2022-11-11T00:01:57;9.50;70.90
14873;DHT22;7528;48.576;19.122;2022-11-11T00:07:18;9.50;70.60
14873;DHT22;7528;48.576;19.122;2022-11-11T00:12:39;9.40;70.90
14873;DHT22;7528;48.576;19.122;2022-11-11T00:18:02;9.30;71.50
14873;DHT22;7528;48.576;19.122;2022-11-11T00:23:42;9.30;72.20
14873;DHT22;7528;48.576;19.122;2022-11-11T00:29:20;9.20;72.20
14873;DHT22;7528;48.576;19.122;2022-11-11T00:34:43;9.30;72.40
14873;DHT22;7528;48.576;19.122;2022-11-11T00:40:24;9.20;71.70
14873;DHT22;7528;48.576;19.122;2022-11-11T00:45:46;9.20;71.60
14873;DHT22;7528;48.576;19.122;2022-11-11T00:51:09;9.10;71.20
14873;DHT22;7528;48.576;19.122;2022-11-11T00:56:30;9.10;71.40
14873;DHT22;7528;48.576;19.122;2022-11-11T01:01:51;9.00;71.20
14873;DHT22;7528;48.576;19.122;2022-11-11T01:07:14;8.90;71.20
14873;DHT22;7528;48.576;19.122;2022-11-11T01:12:35;8.90;71.80
14873;DHT22;7528;48.576;19.122;2022-11-11T01:17:56;8.90;71.50
14873;DHT22;7528;48.576;19.122;2022-11-11T01:23:19;8.90;71.60
14873;DHT22;7528;48.576;19.122;2022-11-11T01:28:40;9.00;71.50
14873;DHT22;7528;48.576;19.122;2022-11-11T01:34:02;8.80;70.20
14873;DHT22;7528;48.576;19.122;2022-11-11T01:39:24;8.80;70.50
14873;DHT22;7528;48.576;19.122;2022-11-11T01:44:47;8.80;71.10
14873;DHT22;7528;48.576;19.122;2022-11-11T01:50:08;8.80;71.10
14873;DHT22;7528;48.576;19.122;2022-11-11T01:55:31;8.80;71.10
14873;DHT22;7528;48.576;19.122;2022-11-11T02:00:53;8.80;71.10
14873;DHT22;7528;48.576;19.122;2022-11-11T02:06:14;8.80;71.20
14873;DHT22;7528;48.576;19.122;2022-11-11T02:11:39;8.90;71.50
14873;DHT22;7528;48.576;19.122;2022-11-11T02:17:19;8.90;72.40
14873;DHT22;7528;48.576;19.122;2022-11-11T02:22:45;8.90;74.20
14873;DHT22;7528;48.576;19.122;2022-11-11T02:28:10;8.90;74.60
14873;DHT22;7528;48.576;19.122;2022-11-11T02:33:33;8.90;74.40
14873;DHT22;7528;48.576;19.122;2022-11-11T02:38:54;8.90;75.10
14873;DHT22;7528;48.576;19.122;2022-11-11T02:44:16;8.90;74.30
14873;DHT22;7528;48.576;19.122;2022-11-11T02:49:38;9.00;73.70
14873;DHT22;7528;48.576;19.122;2022-11-11T02:54:59;9.00;73.60
14873;DHT22;7528;48.576;19.122;2022-11-11T03:00:22;9.00;73.60
14873;DHT22;7528;48.576;19.122;2022-11-11T03:05:43;9.00;73.50
14873;DHT22;7528;48.576;19.122;2022-11-11T03:11:04;8.90;73.30
14873;DHT22;7528;48.576;19.122;2022-11-11T03:16:27;8.80;73.00
14873;DHT22;7528;48.576;19.122;2022-11-11T03:22:02;8.80;73.50
14873;DHT22;7528;48.576;19.122;2022-11-11T03:27:23;8.70;74.80
14873;DHT22;7528;48.576;19.122;2022-11-11T03:32:45;8.70;74.80
14873;DHT22;7528;48.576;19.122;2022-11-11T03:38:09;8.80;74.20
14873;DHT22;7528;48.576;19.122;2022-11-11T03:43:42;8.70;73.50
14873;DHT22;7528;48.576;19.122;2022-11-11T03:49:04;8.70;73.90
14873;DHT22;7528;48.576;19.122;2022-11-11T03:54:25;8.60;74.20
14873;DHT22;7528;48.576;19.122;2022-11-11T03:59:46;8.70;74.50
14873;DHT22;7528;48.576;19.122;2022-11-11T04:05:09;8.80;74.50
14873;DHT22;7528;48.576;19.122;2022-11-11T04:10:48;8.80;73.90
14873;DHT22;7528;48.576;19.122;2022-11-11T04:16:09;8.80;74.00
14873;DHT22;7528;48.576;19.122;2022-11-11T04:21:31;8.90;74.10
14873;DHT22;7528;48.576;19.122;2022-11-11T04:27:06;8.80;73.80
14873;DHT22;7528;48.576;19.122;2022-11-11T04:32:28;8.70;74.30
14873;DHT22;7528;48.576;19.122;2022-11-11T04:37:58;8.70;73.80
14873;DHT22;7528;48.576;19.122;2022-11-11T04:43:33;8.80;73.10
14873;DHT22;7528;48.576;19.122;2022-11-11T04:49:15;8.80;72.40
14873;DHT22;7528;48.576;19.122;2022-11-11T04:54:38;8.70;73.40
14873;DHT22;7528;48.576;19.122;2022-11-11T05:00:14;8.70;73.00
14873;DHT22;7528;48.576;19.122;2022-11-11T05:05:36;8.80;72.80
14873;DHT22;7528;48.576;19.122;2022-11-11T05:11:13;8.80;72.50
14873;DHT22;7528;48.576;19.122;2022-11-11T05:16:39;8.70;72.30
14873;DHT22;7528;48.576;19.122;2022-11-11T05:22:30;8.60;73.10
14873;DHT22;7528;48.576;19.122;2022-11-11T05:27:54;8.70;73.60
14873;DHT22;7528;48.576;19.122;2022-11-11T05:33:16;8.70;73.80
14873;DHT22;7528;48.576;19.122;2022-11-11T05:38:37;8.70;73.70
14873;DHT22;7528;48.576;19.122;2022-11-11T05:44:00;8.70;73.50
14873;DHT22;7528;48.576;19.122;2022-11-11T05:49:20;8.70;74.00
14873;DHT22;7528;48.576;19.122;2022-11-11T05:54:42;8.50;74.00
14873;DHT22;7528;48.576;19.122;2022-11-11T06:00:06;8.50;73.80
14873;DHT22;7528;48.576;19.122;2022-11-11T06:05:29;8.50;73.70
14873;DHT22;7528;48.576;19.122;2022-11-11T06:10:50;8.50;73.10
14873;DHT22;7528;48.576;19.122;2022-11-11T06:16:14;8.40;73.30
14873;DHT22;7528;48.576;19.122;2022-11-11T06:21:35;8.30;73.20
14873;DHT22;7528;48.576;19.122;2022-11-11T06:27:10;8.40;73.70
14873;DHT22;7528;48.576;19.122;2022-11-11T06:32:32;8.40;73.40
14873;DHT22;7528;48.576;19.122;2022-11-11T06:37:53;8.50;73.50
14873;DHT22;7528;48.576;19.122;2022-11-11T06:43:15;8.60;73.40
14873;DHT22;7528;48.576;19.122;2022-11-11T06:48:37;8.60;73.90
14873;DHT22;7528;48.576;19.122;2022-11-11T06:54:01;8.70;73.90
14873;DHT22;7528;48.576;19.122;2022-11-11T06:59:22;8.80;74.10
14873;DHT22;7528;48.576;19.122;2022-11-11T07:04:45;8.80;74.30
14873;DHT22;7528;48.576;19.122;2022-11-11T07:10:07;8.80;74.60
14873;DHT22;7528;48.576;19.122;2022-11-11T07:15:29;8.90;74.80
14873;DHT22;7528;48.576;19.122;2022-11-11T07:20:52;8.80;75.20
14873;DHT22;7528;48.576;19.122;2022-11-11T07:26:13;8.90;74.10
14873;DHT22;7528;48.576;19.122;2022-11-11T07:31:35;8.90;74.30
14873;DHT22;7528;48.576;19.122;2022-11-11T07:36:57;9.00;73.70
14873;DHT22;7528;48.576;19.122;2022-11-11T07:42:18;9.10;73.50
14873;DHT22;7528;48.576;19.122;2022-11-11T07:47:42;9.20;73.00
14873;DHT22;7528;48.576;19.122;2022-11-11T07:53:04;9.20;72.70
14873;DHT22;7528;48.576;19.122;2022-11-11T07:58:25;9.20;72.60
14873;DHT22;7528;48.576;19.122;2022-11-11T08:03:47;9.30;72.60
14873;DHT22;7528;48.576;19.122;2022-11-11T08:09:12;9.30;72.90
14873;DHT22;7528;48.576;19.122;2022-11-11T08:14:33;9.40;72.20
14873;DHT22;7528;48.576;19.122;2022-11-11T08:19:55;9.40;72.50
14873;DHT22;7528;48.576;19.122;2022-11-11T08:25:17;9.50;73.70
14873;DHT22;7528;48.576;19.122;2022-11-11T08:30:39;9.60;73.20
14873;DHT22;7528;48.576;19.122;2022-11-11T08:36:00;9.60;72.70
14873;DHT22;7528;48.576;19.122;2022-11-11T08:41:23;9.70;72.40
14873;DHT22;7528;48.576;19.122;2022-11-11T08:46:44;9.50;72.60
14873;DHT22;7528;48.576;19.122;2022-11-11T08:52:05;9.50;73.80
14873;DHT22;7528;48.576;19.122;2022-11-11T08:57:28;9.60;74.70
14873;DHT22;7528;48.576;19.122;2022-11-11T09:02:50;9.70;74.10
14873;DHT22;7528;48.576;19.122;2022-11-11T09:08:11;9.80;74.00
14873;DHT22;7528;48.576;19.122;2022-11-11T09:13:34;9.80;74.50
14873;DHT22;7528;48.576;19.122;2022-11-11T09:18:55;9.90;74.00
14873;DHT22;7528;48.576;19.122;2022-11-11T09:24:17;9.90;74.00
14873;DHT22;7528;48.576;19.122;2022-11-11T09:29:39;10.00;73.90
14873;DHT22;7528;48.576;19.122;2022-11-11T09:35:01;10.10;74.10
14873;DHT22;7528;48.576;19.122;2022-11-11T09:40:24;10.30;73.30
14873;DHT22;7528;48.576;19.122;2022-11-11T09:45:59;10.50;72.90
14873;DHT22;7528;48.576;19.122;2022-11-11T09:51:25;10.50;71.80
14873;DHT22;7528;48.576;19.122;2022-11-11T09:56:50;10.70;72.60
14873;DHT22;7528;48.576;19.122;2022-11-11T10:02:19;11.10;71.30
14873;DHT22;7528;48.576;19.122;2022-11-11T10:07:48;11.70;69.70
14873;DHT22;7528;48.576;19.122;2022-11-11T10:13:14;12.00;68.10
14873;DHT22;7528;48.576;19.122;2022-11-11T10:18:59;12.40;67.50
14873;DHT22;7528;48.576;19.122;2022-11-11T10:24:28;12.80;66.50
14873;DHT22;7528;48.576;19.122;2022-11-11T10:29:50;14.30;63.60
14873;DHT22;7528;48.576;19.122;2022-11-11T10:35:15;17.00;56.20
14873;DHT22;7528;48.576;19.122;2022-11-11T10:40:41;17.80;52.60
14873;DHT22;7528;48.576;19.122;2022-11-11T10:46:10;17.80;51.90
14873;DHT22;7528;48.576;19.122;2022-11-11T10:51:38;17.30;51.70
14873;DHT22;7528;48.576;19.122;2022-11-11T10:57:08;18.00;53.00
14873;DHT22;7528;48.576;19.122;2022-11-11T11:02:38;19.90;49.00
14873;DHT22;7528;48.576;19.122;2022-11-11T11:08:06;21.10;44.60
14873;DHT22;7528;48.576;19.122;2022-11-11T11:13:32;22.10;44.60
14873;DHT22;7528;48.576;19.122;2022-11-11T11:19:14;23.00;41.80
14873;DHT22;7528;48.576;19.122;2022-11-11T11:24:36;23.60;39.90
14873;DHT22;7528;48.576;19.122;2022-11-11T11:30:10;24.70;39.10
14873;DHT22;7528;48.576;19.122;2022-11-11T11:35:36;25.80;35.80
14873;DHT22;7528;48.576;19.122;2022-11-11T11:40:58;24.60;36.40
14873;DHT22;7528;48.576;19.122;2022-11-11T11:46:27;24.00;39.10
14873;DHT22;7528;48.576;19.122;2022-11-11T11:51:54;25.30;36.10
14873;DHT22;7528;48.576;19.122;2022-11-11T11:57:27;25.10;35.80
14873;DHT22;7528;48.576;19.122;2022-11-11T12:03:11;23.50;38.00
14873;DHT22;7528;48.576;19.122;2022-11-11T12:08:46;23.20;40.30
14873;DHT22;7528;48.576;19.122;2022-11-11T12:14:30;24.60;39.10
14873;DHT22;7528;48.576;19.122;2022-11-11T12:20:00;25.50;35.40
14873;DHT22;7528;48.576;19.122;2022-11-11T12:25:35;24.80;36.40
14873;DHT22;7528;48.576;19.122;2022-11-11T12:31:05;24.70;36.90
14873;DHT22;7528;48.576;19.122;2022-11-11T12:36:34;25.40;36.10
14873;DHT22;7528;48.576;19.122;2022-11-11T12:42:05;24.60;36.10
14873;DHT22;7528;48.576;19.122;2022-11-11T12:47:36;25.30;36.70
14873;DHT22;7528;48.576;19.122;2022-11-11T12:53:15;24.70;36.30
14873;DHT22;7528;48.576;19.122;2022-11-11T12:58:42;23.90;38.60
14873;DHT22;7528;48.576;19.122;2022-11-11T13:04:29;23.30;39.20
14873;DHT22;7528;48.576;19.122;2022-11-11T13:10:12;23.00;41.40
14873;DHT22;7528;48.576;19.122;2022-11-11T13:15:36;24.50;39.00
14873;DHT22;7528;48.576;19.122;2022-11-11T13:21:03;25.80;36.10
14873;DHT22;7528;48.576;19.122;2022-11-11T13:26:30;26.50;34.50
14873;DHT22;7528;48.576;19.122;2022-11-11T13:31:53;26.10;34.80
14873;DHT22;7528;48.576;19.122;2022-11-11T13:37:21;25.70;35.30
14873;DHT22;7528;48.576;19.122;2022-11-11T13:48:26;25.70;34.90
14873;DHT22;7528;48.576;19.122;2022-11-11T13:53:49;25.50;35.60
14873;DHT22;7528;48.576;19.122;2022-11-11T13:59:19;24.90;36.00
14873;DHT22;7528;48.576;19.122;2022-11-11T14:05:18;24.30;37.30
14873;DHT22;7528;48.576;19.122;2022-11-11T14:10:51;23.40;38.60
14873;DHT22;7528;48.576;19.122;2022-11-11T14:22:31;22.20;41.20
14873;DHT22;7528;48.576;19.122;2022-11-11T14:27:54;21.70;42.90
14873;DHT22;7528;48.576;19.122;2022-11-11T14:39:02;21.00;45.50
14873;DHT22;7528;48.576;19.122;2022-11-11T14:44:52;20.50;46.40
14873;DHT22;7528;48.576;19.122;2022-11-11T14:50:41;20.00;47.60
14873;DHT22;7528;48.576;19.122;2022-11-11T14:56:03;19.60;48.30
14873;DHT22;7528;48.576;19.122;2022-11-11T15:01:34;19.20;49.30
14873;DHT22;7528;48.576;19.122;2022-11-11T15:06:58;18.80;50.10
14873;DHT22;7528;48.576;19.122;2022-11-11T15:12:29;18.50;50.90
14873;DHT22;7528;48.576;19.122;2022-11-11T15:18:03;18.40;51.60
14873;DHT22;7528;48.576;19.122;2022-11-11T15:23:43;18.20;52.00
14873;DHT22;7528;48.576;19.122;2022-11-11T15:30:01;17.90;52.50
14873;DHT22;7528;48.576;19.122;2022-11-11T15:35:35;17.70;53.30
14873;DHT22;7528;48.576;19.122;2022-11-11T15:41:00;17.60;53.30
14873;DHT22;7528;48.576;19.122;2022-11-11T15:46:24;17.50;53.50
14873;DHT22;7528;48.576;19.122;2022-11-11T15:51:55;17.30;54.50
14873;DHT22;7528;48.576;19.122;2022-11-11T15:57:25;17.10;55.00
14873;DHT22;7528;48.576;19.122;2022-11-11T16:02:47;17.00;55.20
14873;DHT22;7528;48.576;19.122;2022-11-11T16:08:16;16.90;55.40
14873;DHT22;7528;48.576;19.122;2022-11-11T16:13:43;16.90;55.30
14873;DHT22;7528;48.576;19.122;2022-11-11T16:19:11;16.80;55.50
14873;DHT22;7528;48.576;19.122;2022-11-11T16:24:39;16.70;55.30
14873;DHT22;7528;48.576;19.122;2022-11-11T16:30:16;16.60;55.80
14873;DHT22;7528;48.576;19.122;2022-11-11T16:35:39;16.40;57.10
14873;DHT22;7528;48.576;19.122;2022-11-11T16:41:02;16.40;56.60
14873;DHT22;7528;48.576;19.122;2022-11-11T16:46:39;16.30;56.90
14873;DHT22;7528;48.576;19.122;2022-11-11T16:52:08;16.20;58.00
14873;DHT22;7528;48.576;19.122;2022-11-11T16:57:33;16.20;57.40
14873;DHT22;7528;48.576;19.122;2022-11-11T17:03:08;16.10;57.60
14873;DHT22;7528;48.576;19.122;2022-11-11T17:08:33;16.10;58.00
14873;DHT22;7528;48.576;19.122;2022-11-11T17:13:56;16.00;58.30
14873;DHT22;7528;48.576;19.122;2022-11-11T17:19:18;15.90;58.90
14873;DHT22;7528;48.576;19.122;2022-11-11T17:24:40;15.80;59.50
14873;DHT22;7528;48.576;19.122;2022-11-11T17:30:04;15.80;59.30
14873;DHT22;7528;48.576;19.122;2022-11-11T17:35:26;15.70;59.40
14873;DHT22;7528;48.576;19.122;2022-11-11T17:40:47;15.60;59.90
14873;DHT22;7528;48.576;19.122;2022-11-11T17:46:10;15.50;59.80
14873;DHT22;7528;48.576;19.122;2022-11-11T17:51:32;15.40;60.70
14873;DHT22;7528;48.576;19.122;2022-11-11T17:56:53;15.40;61.00
14873;DHT22;7528;48.576;19.122;2022-11-11T18:02:16;15.40;61.20
14873;DHT22;7528;48.576;19.122;2022-11-11T18:07:38;15.30;60.80
14873;DHT22;7528;48.576;19.122;2022-11-11T18:12:59;15.30;61.30
14873;DHT22;7528;48.576;19.122;2022-11-11T18:18:22;15.30;61.40
14873;DHT22;7528;48.576;19.122;2022-11-11T18:23:44;15.20;61.90
14873;DHT22;7528;48.576;19.122;2022-11-11T18:29:06;15.10;62.40
14873;DHT22;7528;48.576;19.122;2022-11-11T18:34:30;15.10;62.80
14873;DHT22;7528;48.576;19.122;2022-11-11T18:39:55;15.10;63.00
14873;DHT22;7528;48.576;19.122;2022-11-11T18:45:18;15.00;63.00
14873;DHT22;7528;48.576;19.122;2022-11-11T18:50:43;15.00;63.40
14873;DHT22;7528;48.576;19.122;2022-11-11T18:56:14;14.90;63.40
14873;DHT22;7528;48.576;19.122;2022-11-11T19:01:39;14.80;63.70
14873;DHT22;7528;48.576;19.122;2022-11-11T19:07:02;14.70;64.20
14873;DHT22;7528;48.576;19.122;2022-11-11T19:12:24;14.60;64.10
14873;DHT22;7528;48.576;19.122;2022-11-11T19:17:45;14.50;64.40
14873;DHT22;7528;48.576;19.122;2022-11-11T19:23:08;14.50;64.50
14873;DHT22;7528;48.576;19.122;2022-11-11T19:28:29;14.40;64.60
14873;DHT22;7528;48.576;19.122;2022-11-11T19:33:51;14.40;64.30
14873;DHT22;7528;48.576;19.122;2022-11-11T19:39:14;14.30;64.20
14873;DHT22;7528;48.576;19.122;2022-11-11T19:44:35;14.40;64.60
14873;DHT22;7528;48.576;19.122;2022-11-11T19:49:56;14.40;64.30
14873;DHT22;7528;48.576;19.122;2022-11-11T19:55:21;14.20;64.90
14873;DHT22;7528;48.576;19.122;2022-11-11T20:00:43;14.40;64.50
14873;DHT22;7528;48.576;19.122;2022-11-11T20:06:06;14.30;65.10
14873;DHT22;7528;48.576;19.122;2022-11-11T20:11:41;14.20;65.60
14873;DHT22;7528;48.576;19.122;2022-11-11T20:17:03;14.10;66.40
14873;DHT22;7528;48.576;19.122;2022-11-11T20:22:24;14.10;65.70
14873;DHT22;7528;48.576;19.122;2022-11-11T20:27:57;14.10;65.80
14873;DHT22;7528;48.576;19.122;2022-11-11T20:33:25;14.00;66.10
14873;DHT22;7528;48.576;19.122;2022-11-11T20:38:47;13.90;66.40
14873;DHT22;7528;48.576;19.122;2022-11-11T20:44:15;13.80;66.70
14873;DHT22;7528;48.576;19.122;2022-11-11T20:49:37;13.90;66.70
14873;DHT22;7528;48.576;19.122;2022-11-11T20:54:58;13.80;66.60
14873;DHT22;7528;48.576;19.122;2022-11-11T21:00:20;13.80;67.20
14873;DHT22;7528;48.576;19.122;2022-11-11T21:05:41;13.70;67.00
14873;DHT22;7528;48.576;19.122;2022-11-11T21:11:04;13.60;67.40
14873;DHT22;7528;48.576;19.122;2022-11-11T21:16:30;13.60;67.20
14873;DHT22;7528;48.576;19.122;2022-11-11T21:21:51;13.50;67.60
14873;DHT22;7528;48.576;19.122;2022-11-11T21:27:13;13.50;67.70
14873;DHT22;7528;48.576;19.122;2022-11-11T21:32:35;13.50;67.40
14873;DHT22;7528;48.576;19.122;2022-11-11T21:37:57;13.50;67.40
14873;DHT22;7528;48.576;19.122;2022-11-11T21:43:18;13.50;67.90
14873;DHT22;7528;48.576;19.122;2022-11-11T21:48:42;13.40;67.90
14873;DHT22;7528;48.576;19.122;2022-11-11T21:54:05;13.40;68.10
14873;DHT22;7528;48.576;19.122;2022-11-11T21:59:27;13.40;68.20
14873;DHT22;7528;48.576;19.122;2022-11-11T22:04:49;13.40;68.20
14873;DHT22;7528;48.576;19.122;2022-11-11T22:10:10;13.30;68.40
14873;DHT22;7528;48.576;19.122;2022-11-11T22:15:31;13.20;68.70
14873;DHT22;7528;48.576;19.122;2022-11-11T22:21:00;13.20;69.10
14873;DHT22;7528;48.576;19.122;2022-11-11T22:26:22;13.20;69.00
14873;DHT22;7528;48.576;19.122;2022-11-11T22:31:43;13.10;69.10
14873;DHT22;7528;48.576;19.122;2022-11-11T22:37:11;13.10;69.00
14873;DHT22;7528;48.576;19.122;2022-11-11T22:42:33;13.10;69.10
14873;DHT22;7528;48.576;19.122;2022-11-11T22:47:55;13.10;69.20
14873;DHT22;7528;48.576;19.122;2022-11-11T22:53:19;13.00;69.70
14873;DHT22;7528;48.576;19.122;2022-11-11T22:58:41;13.00;69.70
14873;DHT22;7528;48.576;19.122;2022-11-11T23:04:07;12.90;69.80
14873;DHT22;7528;48.576;19.122;2022-11-11T23:09:30;12.90;69.60
14873;DHT22;7528;48.576;19.122;2022-11-11T23:14:54;12.90;69.80
14873;DHT22;7528;48.576;19.122;2022-11-11T23:20:16;12.80;69.50
14873;DHT22;7528;48.576;19.122;2022-11-11T23:25:39;12.90;69.60
14873;DHT22;7528;48.576;19.122;2022-11-11T23:31:01;12.80;69.80
14873;DHT22;7528;48.576;19.122;2022-11-11T23:36:24;12.80;69.60
14873;DHT22;7528;48.576;19.122;2022-11-11T23:41:47;12.70;70.00
14873;DHT22;7528;48.576;19.122;2022-11-11T23:47:09;12.80;70.10
14873;DHT22;7528;48.576;19.122;2022-11-11T23:52:30;12.80;70.20
14873;DHT22;7528;48.576;19.122;2022-11-11T23:57:53;12.70;70.00
